sensor_id;sensor_type;location;lat;lon;timestamp;P1;durP1;ratioP1;P2;durP2;ratioP2
23099;SDS011;53791;50.696;4.396;2023-07-13T00:02:00;4.12;;;1.30;;
23099;SDS011;53791;50.696;4.396;2023-07-13T00:04:27;2.33;;;1.00;;
23099;SDS011;53791;50.696;4.396;2023-07-13T00:06:55;1.47;;;0.88;;
23099;SDS011;53791;50.696;4.396;2023-07-13T00:09:23;2.02;;;1.10;;
23099;SDS011;53791;50.696;4.396;2023-07-13T00:11:51;1.57;;;1.02;;
23099;SDS011;53791;50.696;4.396;2023-07-13T00:14:21;2.90;;;1.37;;
23099;SDS011;53791;50.696;4.396;2023-07-13T00:16:49;1.40;;;0.72;;
23099;SDS011;53791;50.696;4.396;2023-07-13T00:19:16;3.00;;;1.40;;
23099;SDS011;53791;50.696;4.396;2023-07-13T00:21:44;2.55;;;1.47;;
23099;SDS011;53791;50.696;4.396;2023-07-13T00:24:13;2.92;;;1.30;;
23099;SDS011;53791;50.696;4.396;2023-07-13T00:26:44;1.50;;;0.98;;
23099;SDS011;53791;50.696;4.396;2023-07-13T00:29:12;3.10;;;0.88;;
23099;SDS011;53791;50.696;4.396;2023-07-13T00:31:39;3.40;;;1.42;;
23099;SDS011;53791;50.696;4.396;2023-07-13T00:34:07;2.37;;;1.07;;
23099;SDS011;53791;50.696;4.396;2023-07-13T00:36:34;1.70;;;0.80;;
23099;SDS011;53791;50.696;4.396;2023-07-13T00:39:02;1.52;;;0.90;;
23099;SDS011;53791;50.696;4.396;2023-07-13T00:41:30;4.17;;;1.00;;
23099;SDS011;53791;50.696;4.396;2023-07-13T00:43:58;3.98;;;1.27;;
23099;SDS011;53791;50.696;4.396;2023-07-13T00:46:27;8.90;;;1.12;;
23099;SDS011;53791;50.696;4.396;2023-07-13T00:48:58;1.80;;;1.20;;
23099;SDS011;53791;50.696;4.396;2023-07-13T00:51:30;2.62;;;1.20;;
23099;SDS011;53791;50.696;4.396;2023-07-13T00:54:20;8.40;;;1.12;;
23099;SDS011;53791;50.696;4.396;2023-07-13T00:56:49;2.98;;;1.20;;
23099;SDS011;53791;50.696;4.396;2023-07-13T00:59:19;3.35;;;1.20;;
23099;SDS011;53791;50.696;4.396;2023-07-13T01:01:48;1.77;;;0.95;;
23099;SDS011;53791;50.696;4.396;2023-07-13T01:04:16;2.30;;;1.10;;
23099;SDS011;53791;50.696;4.396;2023-07-13T01:06:45;2.70;;;1.47;;
23099;SDS011;53791;50.696;4.396;2023-07-13T01:09:13;2.55;;;1.32;;
23099;SDS011;53791;50.696;4.396;2023-07-13T01:11:41;1.72;;;0.95;;
23099;SDS011;53791;50.696;4.396;2023-07-13T01:14:10;1.67;;;1.00;;
23099;SDS011;53791;50.696;4.396;2023-07-13T01:16:39;2.52;;;1.47;;
23099;SDS011;53791;50.696;4.396;2023-07-13T01:19:16;1.95;;;1.00;;
23099;SDS011;53791;50.696;4.396;2023-07-13T01:21:42;1.50;;;0.88;;
23099;SDS011;53791;50.696;4.396;2023-07-13T01:24:10;1.35;;;0.80;;
23099;SDS011;53791;50.696;4.396;2023-07-13T01:26:37;3.92;;;1.45;;
23099;SDS011;53791;50.696;4.396;2023-07-13T01:29:05;5.47;;;1.25;;
23099;SDS011;53791;50.696;4.396;2023-07-13T01:31:33;4.83;;;0.93;;
23099;SDS011;53791;50.696;4.396;2023-07-13T01:34:00;1.57;;;0.95;;
23099;SDS011;53791;50.696;4.396;2023-07-13T01:36:28;1.75;;;0.93;;
23099;SDS011;53791;50.696;4.396;2023-07-13T01:38:56;2.10;;;1.37;;
23099;SDS011;53791;50.696;4.396;2023-07-13T01:41:23;1.75;;;0.98;;
23099;SDS011;53791;50.696;4.396;2023-07-13T01:43:52;1.60;;;0.90;;
23099;SDS011;53791;50.696;4.396;2023-07-13T01:46:19;1.50;;;0.70;;
23099;SDS011;53791;50.696;4.396;2023-07-13T01:48:47;2.20;;;1.17;;
23099;SDS011;53791;50.696;4.396;2023-07-13T01:51:15;4.60;;;1.55;;
23099;SDS011;53791;50.696;4.396;2023-07-13T01:53:43;1.75;;;1.10;;
23099;SDS011;53791;50.696;4.396;2023-07-13T01:56:11;2.65;;;1.40;;
23099;SDS011;53791;50.696;4.396;2023-07-13T01:58:39;2.45;;;1.30;;
23099;SDS011;53791;50.696;4.396;2023-07-13T02:01:06;2.20;;;1.12;;
23099;SDS011;53791;50.696;4.396;2023-07-13T02:03:34;2.05;;;1.32;;
23099;SDS011;53791;50.696;4.396;2023-07-13T02:06:01;2.37;;;1.30;;
23099;SDS011;53791;50.696;4.396;2023-07-13T02:08:30;1.60;;;0.93;;
23099;SDS011;53791;50.696;4.396;2023-07-13T02:10:58;1.52;;;0.95;;
23099;SDS011;53791;50.696;4.396;2023-07-13T02:13:26;2.00;;;1.00;;
23099;SDS011;53791;50.696;4.396;2023-07-13T02:15:54;3.05;;;1.25;;
23099;SDS011;53791;50.696;4.396;2023-07-13T02:18:21;2.37;;;1.25;;
23099;SDS011;53791;50.696;4.396;2023-07-13T02:20:49;3.08;;;1.05;;
23099;SDS011;53791;50.696;4.396;2023-07-13T02:23:16;3.15;;;1.25;;
23099;SDS011;53791;50.696;4.396;2023-07-13T02:25:44;1.98;;;1.00;;
23099;SDS011;53791;50.696;4.396;2023-07-13T02:28:12;2.30;;;0.98;;
23099;SDS011;53791;50.696;4.396;2023-07-13T02:30:40;1.70;;;0.95;;
23099;SDS011;53791;50.696;4.396;2023-07-13T02:33:07;4.03;;;1.98;;
23099;SDS011;53791;50.696;4.396;2023-07-13T02:35:35;16.93;;;1.65;;
23099;SDS011;53791;50.696;4.396;2023-07-13T02:38:02;2.72;;;1.62;;
23099;SDS011;53791;50.696;4.396;2023-07-13T02:40:30;2.22;;;1.15;;
23099;SDS011;53791;50.696;4.396;2023-07-13T02:42:59;2.22;;;1.20;;
23099;SDS011;53791;50.696;4.396;2023-07-13T02:45:27;1.72;;;0.95;;
23099;SDS011;53791;50.696;4.396;2023-07-13T02:47:54;4.80;;;1.35;;
23099;SDS011;53791;50.696;4.396;2023-07-13T02:50:22;2.33;;;1.37;;
23099;SDS011;53791;50.696;4.396;2023-07-13T02:52:50;1.82;;;1.02;;
23099;SDS011;53791;50.696;4.396;2023-07-13T02:55:17;1.65;;;1.10;;
23099;SDS011;53791;50.696;4.396;2023-07-13T02:57:45;3.65;;;1.60;;
23099;SDS011;53791;50.696;4.396;2023-07-13T03:00:12;2.40;;;1.17;;
23099;SDS011;53791;50.696;4.396;2023-07-13T03:02:41;2.75;;;1.52;;
23099;SDS011;53791;50.696;4.396;2023-07-13T03:05:09;1.80;;;1.15;;
23099;SDS011;53791;50.696;4.396;2023-07-13T03:07:38;1.90;;;1.22;;
23099;SDS011;53791;50.696;4.396;2023-07-13T03:10:06;6.83;;;1.82;;
23099;SDS011;53791;50.696;4.396;2023-07-13T03:12:34;2.50;;;1.22;;
23099;SDS011;53791;50.696;4.396;2023-07-13T03:15:02;1.55;;;0.95;;
23099;SDS011;53791;50.696;4.396;2023-07-13T03:17:30;2.20;;;1.10;;
23099;SDS011;53791;50.696;4.396;2023-07-13T03:19:58;2.02;;;1.02;;
23099;SDS011;53791;50.696;4.396;2023-07-13T03:22:25;2.00;;;1.00;;
23099;SDS011;53791;50.696;4.396;2023-07-13T03:24:54;1.70;;;1.02;;
23099;SDS011;53791;50.696;4.396;2023-07-13T03:27:22;1.90;;;1.10;;
23099;SDS011;53791;50.696;4.396;2023-07-13T03:29:49;1.70;;;0.95;;
23099;SDS011;53791;50.696;4.396;2023-07-13T03:32:17;1.72;;;1.00;;
23099;SDS011;53791;50.696;4.396;2023-07-13T03:34:44;2.85;;;1.55;;
23099;SDS011;53791;50.696;4.396;2023-07-13T03:37:12;3.90;;;1.45;;
23099;SDS011;53791;50.696;4.396;2023-07-13T03:39:39;3.77;;;1.32;;
23099;SDS011;53791;50.696;4.396;2023-07-13T03:42:07;3.58;;;1.02;;
23099;SDS011;53791;50.696;4.396;2023-07-13T03:44:35;1.85;;;1.10;;
23099;SDS011;53791;50.696;4.396;2023-07-13T03:47:03;2.77;;;1.30;;
23099;SDS011;53791;50.696;4.396;2023-07-13T03:49:31;5.30;;;1.98;;
23099;SDS011;53791;50.696;4.396;2023-07-13T03:51:59;3.17;;;1.72;;
23099;SDS011;53791;50.696;4.396;2023-07-13T03:54:27;2.62;;;1.57;;
23099;SDS011;53791;50.696;4.396;2023-07-13T03:56:54;2.08;;;1.37;;
23099;SDS011;53791;50.696;4.396;2023-07-13T03:59:22;4.05;;;1.92;;
23099;SDS011;53791;50.696;4.396;2023-07-13T04:01:49;5.40;;;2.33;;
23099;SDS011;53791;50.696;4.396;2023-07-13T04:04:17;2.83;;;1.75;;
23099;SDS011;53791;50.696;4.396;2023-07-13T04:06:44;3.17;;;1.52;;
23099;SDS011;53791;50.696;4.396;2023-07-13T04:09:12;3.77;;;1.60;;
23099;SDS011;53791;50.696;4.396;2023-07-13T04:11:40;2.27;;;1.47;;
23099;SDS011;53791;50.696;4.396;2023-07-13T04:14:07;2.60;;;1.47;;
23099;SDS011;53791;50.696;4.396;2023-07-13T04:16:35;2.67;;;1.50;;
23099;SDS011;53791;50.696;4.396;2023-07-13T04:19:02;6.17;;;1.62;;
23099;SDS011;53791;50.696;4.396;2023-07-13T04:21:30;2.08;;;1.15;;
23099;SDS011;53791;50.696;4.396;2023-07-13T04:23:58;2.95;;;1.80;;
23099;SDS011;53791;50.696;4.396;2023-07-13T04:26:26;2.30;;;1.57;;
23099;SDS011;53791;50.696;4.396;2023-07-13T04:28:53;2.90;;;1.98;;
23099;SDS011;53791;50.696;4.396;2023-07-13T04:31:21;2.40;;;1.47;;
23099;SDS011;53791;50.696;4.396;2023-07-13T04:33:49;6.65;;;1.85;;
23099;SDS011;53791;50.696;4.396;2023-07-13T04:36:17;3.67;;;2.02;;
23099;SDS011;53791;50.696;4.396;2023-07-13T04:38:44;1.95;;;1.20;;
23099;SDS011;53791;50.696;4.396;2023-07-13T04:41:13;2.60;;;1.65;;
23099;SDS011;53791;50.696;4.396;2023-07-13T04:43:41;2.87;;;1.72;;
23099;SDS011;53791;50.696;4.396;2023-07-13T04:46:14;9.78;;;1.60;;
23099;SDS011;53791;50.696;4.396;2023-07-13T04:48:39;3.25;;;1.87;;
23099;SDS011;53791;50.696;4.396;2023-07-13T04:51:07;2.40;;;1.47;;
23099;SDS011;53791;50.696;4.396;2023-07-13T04:53:35;6.83;;;1.85;;
23099;SDS011;53791;50.696;4.396;2023-07-13T04:56:03;5.90;;;2.00;;
23099;SDS011;53791;50.696;4.396;2023-07-13T04:58:31;14.85;;;1.90;;
23099;SDS011;53791;50.696;4.396;2023-07-13T05:01:05;2.70;;;1.60;;
23099;SDS011;53791;50.696;4.396;2023-07-13T05:03:30;4.05;;;2.20;;
23099;SDS011;53791;50.696;4.396;2023-07-13T05:05:59;3.02;;;1.95;;
23099;SDS011;53791;50.696;4.396;2023-07-13T05:08:28;1.85;;;1.22;;
23099;SDS011;53791;50.696;4.396;2023-07-13T05:10:56;5.70;;;2.10;;
23099;SDS011;53791;50.696;4.396;2023-07-13T05:13:25;3.95;;;2.27;;
23099;SDS011;53791;50.696;4.396;2023-07-13T05:16:02;2.27;;;1.42;;
23099;SDS011;53791;50.696;4.396;2023-07-13T05:18:26;6.15;;;2.00;;
23099;SDS011;53791;50.696;4.396;2023-07-13T05:21:02;1.70;;;1.20;;
23099;SDS011;53791;50.696;4.396;2023-07-13T05:23:27;6.25;;;1.45;;
23099;SDS011;53791;50.696;4.396;2023-07-13T05:25:55;2.50;;;1.60;;
23099;SDS011;53791;50.696;4.396;2023-07-13T05:28:23;4.03;;;2.12;;
23099;SDS011;53791;50.696;4.396;2023-07-13T05:30:51;3.00;;;1.65;;
23099;SDS011;53791;50.696;4.396;2023-07-13T05:33:20;4.42;;;1.65;;
23099;SDS011;53791;50.696;4.396;2023-07-13T05:35:47;5.15;;;2.30;;
23099;SDS011;53791;50.696;4.396;2023-07-13T05:38:15;2.10;;;1.35;;
23099;SDS011;53791;50.696;4.396;2023-07-13T05:40:46;2.35;;;1.57;;
23099;SDS011;53791;50.696;4.396;2023-07-13T05:43:14;2.75;;;1.60;;
23099;SDS011;53791;50.696;4.396;2023-07-13T05:45:41;3.22;;;1.92;;
23099;SDS011;53791;50.696;4.396;2023-07-13T05:48:09;2.77;;;1.77;;
23099;SDS011;53791;50.696;4.396;2023-07-13T05:50:36;1.75;;;1.15;;
23099;SDS011;53791;50.696;4.396;2023-07-13T05:53:04;2.10;;;1.60;;
23099;SDS011;53791;50.696;4.396;2023-07-13T05:55:32;3.52;;;2.02;;
23099;SDS011;53791;50.696;4.396;2023-07-13T05:58:00;2.45;;;1.80;;
23099;SDS011;53791;50.696;4.396;2023-07-13T06:00:28;3.85;;;2.02;;
23099;SDS011;53791;50.696;4.396;2023-07-13T06:02:55;3.95;;;1.90;;
23099;SDS011;53791;50.696;4.396;2023-07-13T06:05:24;2.42;;;1.72;;
23099;SDS011;53791;50.696;4.396;2023-07-13T06:07:52;2.05;;;1.50;;
23099;SDS011;53791;50.696;4.396;2023-07-13T06:10:20;1.80;;;1.30;;
23099;SDS011;53791;50.696;4.396;2023-07-13T06:12:48;1.90;;;1.37;;
23099;SDS011;53791;50.696;4.396;2023-07-13T06:15:15;3.85;;;2.27;;
23099;SDS011;53791;50.696;4.396;2023-07-13T06:17:43;2.70;;;2.00;;
23099;SDS011;53791;50.696;4.396;2023-07-13T06:20:10;3.17;;;1.98;;
23099;SDS011;53791;50.696;4.396;2023-07-13T06:22:38;4.00;;;2.27;;
23099;SDS011;53791;50.696;4.396;2023-07-13T06:25:06;2.72;;;1.67;;
23099;SDS011;53791;50.696;4.396;2023-07-13T06:27:34;2.50;;;1.90;;
23099;SDS011;53791;50.696;4.396;2023-07-13T06:30:02;2.52;;;1.90;;
23099;SDS011;53791;50.696;4.396;2023-07-13T06:32:29;3.00;;;1.80;;
23099;SDS011;53791;50.696;4.396;2023-07-13T06:34:57;2.17;;;1.60;;
23099;SDS011;53791;50.696;4.396;2023-07-13T06:37:24;3.27;;;2.10;;
23099;SDS011;53791;50.696;4.396;2023-07-13T06:39:52;5.80;;;2.70;;
23099;SDS011;53791;50.696;4.396;2023-07-13T06:42:19;3.67;;;2.15;;
23099;SDS011;53791;50.696;4.396;2023-07-13T06:44:47;3.02;;;1.98;;
23099;SDS011;53791;50.696;4.396;2023-07-13T06:47:14;4.15;;;2.42;;
23099;SDS011;53791;50.696;4.396;2023-07-13T06:49:42;3.35;;;2.47;;
23099;SDS011;53791;50.696;4.396;2023-07-13T06:52:09;2.40;;;2.10;;
23099;SDS011;53791;50.696;4.396;2023-07-13T06:54:37;3.27;;;2.67;;
23099;SDS011;53791;50.696;4.396;2023-07-13T06:57:05;2.60;;;1.85;;
23099;SDS011;53791;50.696;4.396;2023-07-13T06:59:33;2.20;;;1.77;;
23099;SDS011;53791;50.696;4.396;2023-07-13T07:02:00;2.77;;;1.55;;
23099;SDS011;53791;50.696;4.396;2023-07-13T07:04:27;3.35;;;2.30;;
23099;SDS011;53791;50.696;4.396;2023-07-13T07:06:55;4.08;;;2.55;;
23099;SDS011;53791;50.696;4.396;2023-07-13T07:09:23;1.87;;;1.37;;
23099;SDS011;53791;50.696;4.396;2023-07-13T07:11:50;2.98;;;2.08;;
23099;SDS011;53791;50.696;4.396;2023-07-13T07:14:18;1.98;;;1.57;;
23099;SDS011;53791;50.696;4.396;2023-07-13T07:16:45;3.52;;;2.05;;
23099;SDS011;53791;50.696;4.396;2023-07-13T07:19:13;5.03;;;2.02;;
23099;SDS011;53791;50.696;4.396;2023-07-13T07:21:40;4.47;;;1.87;;
23099;SDS011;53791;50.696;4.396;2023-07-13T07:24:08;5.58;;;2.33;;
23099;SDS011;53791;50.696;4.396;2023-07-13T07:26:35;5.20;;;2.70;;
23099;SDS011;53791;50.696;4.396;2023-07-13T07:29:03;2.83;;;2.22;;
23099;SDS011;53791;50.696;4.396;2023-07-13T07:31:30;2.80;;;1.80;;
23099;SDS011;53791;50.696;4.396;2023-07-13T07:33:58;7.37;;;3.00;;
23099;SDS011;53791;50.696;4.396;2023-07-13T07:36:25;5.28;;;2.15;;
23099;SDS011;53791;50.696;4.396;2023-07-13T07:38:53;3.90;;;2.00;;
23099;SDS011;53791;50.696;4.396;2023-07-13T07:41:21;3.37;;;2.25;;
23099;SDS011;53791;50.696;4.396;2023-07-13T07:43:48;5.47;;;2.20;;
23099;SDS011;53791;50.696;4.396;2023-07-13T07:46:16;4.37;;;2.20;;
23099;SDS011;53791;50.696;4.396;2023-07-13T07:48:43;4.72;;;2.72;;
23099;SDS011;53791;50.696;4.396;2023-07-13T07:51:11;3.08;;;2.22;;
23099;SDS011;53791;50.696;4.396;2023-07-13T07:53:38;4.65;;;2.37;;
23099;SDS011;53791;50.696;4.396;2023-07-13T07:56:06;3.17;;;2.08;;
23099;SDS011;53791;50.696;4.396;2023-07-13T07:58:33;2.70;;;2.10;;
23099;SDS011;53791;50.696;4.396;2023-07-13T08:01:02;4.17;;;2.58;;
23099;SDS011;53791;50.696;4.396;2023-07-13T08:03:30;2.83;;;1.87;;
23099;SDS011;53791;50.696;4.396;2023-07-13T08:05:58;3.75;;;2.10;;
23099;SDS011;53791;50.696;4.396;2023-07-13T08:08:25;2.60;;;2.05;;
23099;SDS011;53791;50.696;4.396;2023-07-13T08:10:53;8.93;;;1.87;;
23099;SDS011;53791;50.696;4.396;2023-07-13T08:13:20;7.05;;;2.52;;
23099;SDS011;53791;50.696;4.396;2023-07-13T08:15:48;3.10;;;1.72;;
23099;SDS011;53791;50.696;4.396;2023-07-13T08:18:16;3.15;;;1.85;;
23099;SDS011;53791;50.696;4.396;2023-07-13T08:20:43;7.78;;;2.15;;
23099;SDS011;53791;50.696;4.396;2023-07-13T08:23:11;6.55;;;2.40;;
23099;SDS011;53791;50.696;4.396;2023-07-13T08:25:38;2.62;;;1.72;;
23099;SDS011;53791;50.696;4.396;2023-07-13T08:28:06;3.90;;;2.12;;
23099;SDS011;53791;50.696;4.396;2023-07-13T08:30:34;4.70;;;2.05;;
23099;SDS011;53791;50.696;4.396;2023-07-13T08:33:02;3.58;;;2.33;;
23099;SDS011;53791;50.696;4.396;2023-07-13T08:35:29;2.17;;;1.72;;
23099;SDS011;53791;50.696;4.396;2023-07-13T08:37:57;4.72;;;2.20;;
23099;SDS011;53791;50.696;4.396;2023-07-13T08:40:26;11.85;;;3.37;;
23099;SDS011;53791;50.696;4.396;2023-07-13T08:42:55;3.47;;;2.08;;
23099;SDS011;53791;50.696;4.396;2023-07-13T08:45:42;3.83;;;2.25;;
23099;SDS011;53791;50.696;4.396;2023-07-13T08:48:16;2.40;;;1.45;;
23099;SDS011;53791;50.696;4.396;2023-07-13T08:50:48;3.70;;;2.02;;
23099;SDS011;53791;50.696;4.396;2023-07-13T08:53:16;3.05;;;2.35;;
23099;SDS011;53791;50.696;4.396;2023-07-13T08:55:45;2.12;;;1.60;;
23099;SDS011;53791;50.696;4.396;2023-07-13T08:58:13;4.78;;;1.98;;
23099;SDS011;53791;50.696;4.396;2023-07-13T09:03:30;12.43;;;1.80;;
23099;SDS011;53791;50.696;4.396;2023-07-13T09:05:58;2.20;;;1.52;;
23099;SDS011;53791;50.696;4.396;2023-07-13T09:11:14;3.12;;;1.98;;
23099;SDS011;53791;50.696;4.396;2023-07-13T09:16:22;4.10;;;1.72;;
23099;SDS011;53791;50.696;4.396;2023-07-13T09:18:51;3.10;;;2.30;;
23099;SDS011;53791;50.696;4.396;2023-07-13T09:21:25;6.10;;;2.47;;
23099;SDS011;53791;50.696;4.396;2023-07-13T09:23:56;2.27;;;1.67;;
23099;SDS011;53791;50.696;4.396;2023-07-13T09:26:25;8.03;;;1.98;;
23099;SDS011;53791;50.696;4.396;2023-07-13T09:29:03;1.95;;;1.52;;
23099;SDS011;53791;50.696;4.396;2023-07-13T09:31:28;1.80;;;1.30;;
23099;SDS011;53791;50.696;4.396;2023-07-13T09:33:57;2.62;;;1.32;;
23099;SDS011;53791;50.696;4.396;2023-07-13T09:36:28;2.02;;;1.27;;
23099;SDS011;53791;50.696;4.396;2023-07-13T09:38:59;4.95;;;1.60;;
23099;SDS011;53791;50.696;4.396;2023-07-13T09:41:36;2.10;;;1.37;;
23099;SDS011;53791;50.696;4.396;2023-07-13T09:44:12;2.00;;;1.42;;
23099;SDS011;53791;50.696;4.396;2023-07-13T09:46:55;2.52;;;1.75;;
23099;SDS011;53791;50.696;4.396;2023-07-13T09:49:29;2.67;;;1.50;;
23099;SDS011;53791;50.696;4.396;2023-07-13T09:52:00;3.55;;;1.85;;
23099;SDS011;53791;50.696;4.396;2023-07-13T09:54:32;8.63;;;1.50;;
23099;SDS011;53791;50.696;4.396;2023-07-13T09:57:02;2.15;;;1.52;;
23099;SDS011;53791;50.696;4.396;2023-07-13T09:59:40;2.25;;;1.32;;
23099;SDS011;53791;50.696;4.396;2023-07-13T10:02:04;2.17;;;1.20;;
23099;SDS011;53791;50.696;4.396;2023-07-13T10:04:33;1.98;;;1.30;;
23099;SDS011;53791;50.696;4.396;2023-07-13T10:07:05;3.15;;;1.70;;
23099;SDS011;53791;50.696;4.396;2023-07-13T10:09:33;3.72;;;1.42;;
23099;SDS011;53791;50.696;4.396;2023-07-13T10:12:01;2.55;;;1.50;;
23099;SDS011;53791;50.696;4.396;2023-07-13T10:14:29;2.72;;;1.57;;
23099;SDS011;53791;50.696;4.396;2023-07-13T10:17:02;3.17;;;1.95;;
23099;SDS011;53791;50.696;4.396;2023-07-13T10:19:29;3.17;;;1.65;;
23099;SDS011;53791;50.696;4.396;2023-07-13T10:22:00;2.33;;;1.20;;
23099;SDS011;53791;50.696;4.396;2023-07-13T10:24:35;2.77;;;1.80;;
23099;SDS011;53791;50.696;4.396;2023-07-13T10:27:19;3.20;;;1.92;;
23099;SDS011;53791;50.696;4.396;2023-07-13T10:29:59;2.77;;;1.90;;
23099;SDS011;53791;50.696;4.396;2023-07-13T10:32:22;2.70;;;1.72;;
23099;SDS011;53791;50.696;4.396;2023-07-13T10:34:51;2.70;;;1.75;;
23099;SDS011;53791;50.696;4.396;2023-07-13T10:37:26;2.72;;;1.80;;
23099;SDS011;53791;50.696;4.396;2023-07-13T10:39:54;2.10;;;1.55;;
23099;SDS011;53791;50.696;4.396;2023-07-13T10:42:37;1.82;;;1.40;;
23099;SDS011;53791;50.696;4.396;2023-07-13T10:45:20;1.70;;;1.20;;
23099;SDS011;53791;50.696;4.396;2023-07-13T10:47:50;1.90;;;1.22;;
23099;SDS011;53791;50.696;4.396;2023-07-13T10:50:26;1.80;;;1.30;;
23099;SDS011;53791;50.696;4.396;2023-07-13T10:52:54;2.98;;;1.55;;
23099;SDS011;53791;50.696;4.396;2023-07-13T10:55:35;2.22;;;1.62;;
23099;SDS011;53791;50.696;4.396;2023-07-13T10:58:12;3.05;;;1.65;;
23099;SDS011;53791;50.696;4.396;2023-07-13T11:00:46;2.98;;;1.75;;
23099;SDS011;53791;50.696;4.396;2023-07-13T11:03:20;5.60;;;2.00;;
23099;SDS011;53791;50.696;4.396;2023-07-13T11:05:49;2.12;;;1.32;;
23099;SDS011;53791;50.696;4.396;2023-07-13T11:11:34;2.33;;;1.40;;
23099;SDS011;53791;50.696;4.396;2023-07-13T11:13:36;1.90;;;1.35;;
23099;SDS011;53791;50.696;4.396;2023-07-13T11:18:51;2.75;;;1.47;;
23099;SDS011;53791;50.696;4.396;2023-07-13T11:21:22;5.92;;;1.90;;
23099;SDS011;53791;50.696;4.396;2023-07-13T11:23:53;2.90;;;1.75;;
23099;SDS011;53791;50.696;4.396;2023-07-13T11:34:25;2.22;;;1.62;;
23099;SDS011;53791;50.696;4.396;2023-07-13T11:36:52;2.20;;;1.50;;
23099;SDS011;53791;50.696;4.396;2023-07-13T11:39:22;2.90;;;1.67;;
23099;SDS011;53791;50.696;4.396;2023-07-13T11:41:53;2.17;;;1.40;;
23099;SDS011;53791;50.696;4.396;2023-07-13T11:44:24;3.35;;;1.85;;
23099;SDS011;53791;50.696;4.396;2023-07-13T11:46:54;4.75;;;1.77;;
23099;SDS011;53791;50.696;4.396;2023-07-13T11:49:27;2.92;;;1.62;;
23099;SDS011;53791;50.696;4.396;2023-07-13T11:51:56;2.08;;;1.30;;
23099;SDS011;53791;50.696;4.396;2023-07-13T11:54:28;1.90;;;1.12;;
23099;SDS011;53791;50.696;4.396;2023-07-13T11:57:03;2.10;;;1.20;;
23099;SDS011;53791;50.696;4.396;2023-07-13T11:59:36;1.55;;;0.95;;
23099;SDS011;53791;50.696;4.396;2023-07-13T12:02:13;3.27;;;1.27;;
23099;SDS011;53791;50.696;4.396;2023-07-13T12:04:36;1.80;;;1.07;;
23099;SDS011;53791;50.696;4.396;2023-07-13T12:07:07;1.65;;;1.00;;
23099;SDS011;53791;50.696;4.396;2023-07-13T12:09:35;1.80;;;1.05;;
23099;SDS011;53791;50.696;4.396;2023-07-13T12:12:08;2.10;;;1.40;;
23099;SDS011;53791;50.696;4.396;2023-07-13T12:14:36;2.30;;;1.42;;
23099;SDS011;53791;50.696;4.396;2023-07-13T12:17:16;1.80;;;1.20;;
23099;SDS011;53791;50.696;4.396;2023-07-13T12:19:50;2.35;;;1.50;;
23099;SDS011;53791;50.696;4.396;2023-07-13T12:22:19;1.90;;;1.10;;
23099;SDS011;53791;50.696;4.396;2023-07-13T12:24:48;1.60;;;0.98;;
23099;SDS011;53791;50.696;4.396;2023-07-13T12:27:21;2.02;;;1.22;;
23099;SDS011;53791;50.696;4.396;2023-07-13T12:29:57;1.92;;;1.25;;
23099;SDS011;53791;50.696;4.396;2023-07-13T12:32:21;1.60;;;0.98;;
23099;SDS011;53791;50.696;4.396;2023-07-13T12:34:54;2.25;;;1.15;;
23099;SDS011;53791;50.696;4.396;2023-07-13T12:37:23;1.92;;;1.02;;
23099;SDS011;53791;50.696;4.396;2023-07-13T12:39:51;1.95;;;1.10;;
23099;SDS011;53791;50.696;4.396;2023-07-13T12:42:28;2.85;;;1.37;;
23099;SDS011;53791;50.696;4.396;2023-07-13T12:45:09;1.82;;;1.05;;
23099;SDS011;53791;50.696;4.396;2023-07-13T12:47:42;2.02;;;1.22;;
23099;SDS011;53791;50.696;4.396;2023-07-13T12:50:17;2.22;;;1.20;;
23099;SDS011;53791;50.696;4.396;2023-07-13T12:52:49;2.62;;;1.55;;
23099;SDS011;53791;50.696;4.396;2023-07-13T12:55:19;6.97;;;1.40;;
23099;SDS011;53791;50.696;4.396;2023-07-13T13:00:28;1.60;;;0.90;;
23099;SDS011;53791;50.696;4.396;2023-07-13T13:03:04;1.85;;;1.00;;
23099;SDS011;53791;50.696;4.396;2023-07-13T13:05:33;1.82;;;1.02;;
23099;SDS011;53791;50.696;4.396;2023-07-13T13:08:02;1.95;;;1.15;;
23099;SDS011;53791;50.696;4.396;2023-07-13T13:10:30;1.50;;;0.80;;
23099;SDS011;53791;50.696;4.396;2023-07-13T13:12:58;3.05;;;1.30;;
23099;SDS011;53791;50.696;4.396;2023-07-13T13:15:25;2.85;;;1.30;;
23099;SDS011;53791;50.696;4.396;2023-07-13T13:17:53;1.60;;;1.00;;
23099;SDS011;53791;50.696;4.396;2023-07-13T13:20:21;2.75;;;1.20;;
23099;SDS011;53791;50.696;4.396;2023-07-13T13:22:48;1.72;;;1.17;;
23099;SDS011;53791;50.696;4.396;2023-07-13T13:25:16;3.47;;;1.22;;
23099;SDS011;53791;50.696;4.396;2023-07-13T13:27:49;13.05;;;1.67;;
23099;SDS011;53791;50.696;4.396;2023-07-13T13:30:17;2.42;;;1.40;;
23099;SDS011;53791;50.696;4.396;2023-07-13T13:32:45;2.85;;;1.45;;
23099;SDS011;53791;50.696;4.396;2023-07-13T13:35:14;1.90;;;1.30;;
23099;SDS011;53791;50.696;4.396;2023-07-13T13:37:43;1.50;;;0.82;;
23099;SDS011;53791;50.696;4.396;2023-07-13T13:40:15;2.05;;;1.12;;
23099;SDS011;53791;50.696;4.396;2023-07-13T13:42:45;2.98;;;1.15;;
23099;SDS011;53791;50.696;4.396;2023-07-13T13:45:12;3.70;;;1.82;;
23099;SDS011;53791;50.696;4.396;2023-07-13T13:47:41;1.80;;;1.00;;
23099;SDS011;53791;50.696;4.396;2023-07-13T13:50:11;2.10;;;1.10;;
23099;SDS011;53791;50.696;4.396;2023-07-13T13:52:40;1.67;;;0.93;;
23099;SDS011;53791;50.696;4.396;2023-07-13T13:55:12;2.20;;;1.22;;
23099;SDS011;53791;50.696;4.396;2023-07-13T13:57:40;2.25;;;1.00;;
23099;SDS011;53791;50.696;4.396;2023-07-13T14:00:09;1.50;;;0.90;;
23099;SDS011;53791;50.696;4.396;2023-07-13T14:02:42;2.72;;;1.00;;
23099;SDS011;53791;50.696;4.396;2023-07-13T14:05:14;1.75;;;1.02;;
23099;SDS011;53791;50.696;4.396;2023-07-13T14:07:44;1.98;;;1.07;;
23099;SDS011;53791;50.696;4.396;2023-07-13T14:10:20;1.50;;;0.90;;
23099;SDS011;53791;50.696;4.396;2023-07-13T14:12:44;1.80;;;1.12;;
23099;SDS011;53791;50.696;4.396;2023-07-13T14:17:57;1.55;;;0.80;;
23099;SDS011;53791;50.696;4.396;2023-07-13T14:20:25;1.60;;;0.90;;
23099;SDS011;53791;50.696;4.396;2023-07-13T14:22:52;2.87;;;1.37;;
23099;SDS011;53791;50.696;4.396;2023-07-13T14:25:20;2.47;;;1.42;;
23099;SDS011;53791;50.696;4.396;2023-07-13T14:27:49;1.95;;;1.17;;
23099;SDS011;53791;50.696;4.396;2023-07-13T14:30:20;1.50;;;0.80;;
23099;SDS011;53791;50.696;4.396;2023-07-13T14:32:48;1.82;;;1.00;;
23099;SDS011;53791;50.696;4.396;2023-07-13T14:35:16;1.82;;;1.10;;
23099;SDS011;53791;50.696;4.396;2023-07-13T14:37:46;2.12;;;1.07;;
23099;SDS011;53791;50.696;4.396;2023-07-13T14:40:14;1.80;;;0.95;;
23099;SDS011;53791;50.696;4.396;2023-07-13T14:42:46;3.05;;;1.27;;
23099;SDS011;53791;50.696;4.396;2023-07-13T14:45:15;2.33;;;1.20;;
23099;SDS011;53791;50.696;4.396;2023-07-13T14:47:44;1.95;;;1.10;;
23099;SDS011;53791;50.696;4.396;2023-07-13T14:50:16;2.02;;;1.10;;
23099;SDS011;53791;50.696;4.396;2023-07-13T14:52:46;2.98;;;1.10;;
23099;SDS011;53791;50.696;4.396;2023-07-13T14:55:15;1.60;;;0.90;;
23099;SDS011;53791;50.696;4.396;2023-07-13T14:57:45;3.90;;;1.07;;
23099;SDS011;53791;50.696;4.396;2023-07-13T15:00:13;1.87;;;1.00;;
23099;SDS011;53791;50.696;4.396;2023-07-13T15:02:42;1.98;;;1.10;;
23099;SDS011;53791;50.696;4.396;2023-07-13T15:05:17;1.82;;;1.10;;
23099;SDS011;53791;50.696;4.396;2023-07-13T15:07:47;2.15;;;1.22;;
23099;SDS011;53791;50.696;4.396;2023-07-13T15:10:16;1.55;;;0.90;;
23099;SDS011;53791;50.696;4.396;2023-07-13T15:12:45;1.95;;;1.15;;
23099;SDS011;53791;50.696;4.396;2023-07-13T15:15:13;1.82;;;0.93;;
23099;SDS011;53791;50.696;4.396;2023-07-13T15:17:41;1.82;;;0.98;;
23099;SDS011;53791;50.696;4.396;2023-07-13T15:20:18;1.85;;;1.10;;
23099;SDS011;53791;50.696;4.396;2023-07-13T15:22:47;1.42;;;0.80;;
23099;SDS011;53791;50.696;4.396;2023-07-13T15:25:16;1.65;;;1.10;;
23099;SDS011;53791;50.696;4.396;2023-07-13T15:27:45;2.40;;;0.90;;